sensor_id;sensor_type;location;lat;lon;timestamp;pressure;altitude;pressure_sealevel;temperature;humidity
58662;BME280;44432;49.786;22.760;2023-04-06T00:01:02;99567.20;;;-0.24;62.16
58662;BME280;44432;49.786;22.760;2023-04-06T00:03:32;99565.89;;;-0.23;62.14
58662;BME280;44432;49.786;22.760;2023-04-06T00:06:03;99562.61;;;-0.23;62.15
58662;BME280;44432;49.786;22.760;2023-04-06T00:08:34;99560.42;;;-0.24;62.17
58662;BME280;44432;49.786;22.760;2023-04-06T00:11:05;99557.34;;;-0.24;62.17
58662;BME280;44432;49.786;22.760;2023-04-06T00:13:36;99557.01;;;-0.24;62.23
58662;BME280;44432;49.786;22.760;2023-04-06T00:16:07;99554.11;;;-0.23;62.26
58662;BME280;44432;49.786;22.760;2023-04-06T00:18:38;99548.95;;;-0.23;62.25
58662;BME280;44432;49.786;22.760;2023-04-06T00:21:10;99545.27;;;-0.23;62.41
58662;BME280;44432;49.786;22.760;2023-04-06T00:23:42;99541.69;;;-0.22;62.34
58662;BME280;44432;49.786;22.760;2023-04-06T00:26:12;99538.41;;;-0.21;62.38
58662;BME280;44432;49.786;22.760;2023-04-06T00:28:43;99533.45;;;-0.20;62.55
58662;BME280;44432;49.786;22.760;2023-04-06T00:31:14;99531.85;;;-0.18;62.48
58662;BME280;44432;49.786;22.760;2023-04-06T00:33:45;99528.98;;;-0.17;62.68
58662;BME280;44432;49.786;22.760;2023-04-06T00:36:16;99530.23;;;-0.17;62.55
58662;BME280;44432;49.786;22.760;2023-04-06T00:38:46;99527.18;;;-0.20;62.71
58662;BME280;44432;49.786;22.760;2023-04-06T00:41:17;99524.40;;;-0.23;62.81
58662;BME280;44432;49.786;22.760;2023-04-06T00:43:48;99521.02;;;-0.24;62.77
58662;BME280;44432;49.786;22.760;2023-04-06T00:46:19;99521.70;;;-0.26;62.71
58662;BME280;44432;49.786;22.760;2023-04-06T00:48:49;99519.95;;;-0.26;63.03
58662;BME280;44432;49.786;22.760;2023-04-06T00:51:20;99512.25;;;-0.26;62.91
58662;BME280;44432;49.786;22.760;2023-04-06T00:53:51;99510.53;;;-0.27;62.88
58662;BME280;44432;49.786;22.760;2023-04-06T00:56:22;99510.99;;;-0.26;62.99
58662;BME280;44432;49.786;22.760;2023-04-06T00:58:53;99503.58;;;-0.28;63.07
58662;BME280;44432;49.786;22.760;2023-04-06T01:01:24;99502.06;;;-0.29;63.23
58662;BME280;44432;49.786;22.760;2023-04-06T01:03:55;99498.40;;;-0.28;63.36
58662;BME280;44432;49.786;22.760;2023-04-06T01:06:26;99496.71;;;-0.27;63.35
58662;BME280;44432;49.786;22.760;2023-04-06T01:08:57;99494.96;;;-0.27;63.52
58662;BME280;44432;49.786;22.760;2023-04-06T01:11:27;99495.91;;;-0.26;63.43
58662;BME280;44432;49.786;22.760;2023-04-06T01:13:59;99493.80;;;-0.29;63.52
58662;BME280;44432;49.786;22.760;2023-04-06T01:16:30;99493.05;;;-0.33;63.54
58662;BME280;44432;49.786;22.760;2023-04-06T01:19:01;99488.48;;;-0.37;63.65
58662;BME280;44432;49.786;22.760;2023-04-06T01:21:32;99482.98;;;-0.40;64.09
58662;BME280;44432;49.786;22.760;2023-04-06T01:24:02;99480.45;;;-0.41;64.15
58662;BME280;44432;49.786;22.760;2023-04-06T01:26:34;99481.18;;;-0.43;64.27
58662;BME280;44432;49.786;22.760;2023-04-06T01:29:05;99475.21;;;-0.46;64.59
58662;BME280;44432;49.786;22.760;2023-04-06T01:31:36;99472.32;;;-0.48;64.67
58662;BME280;44432;49.786;22.760;2023-04-06T01:34:07;99466.72;;;-0.51;64.80
58662;BME280;44432;49.786;22.760;2023-04-06T01:36:38;99466.26;;;-0.52;65.14
58662;BME280;44432;49.786;22.760;2023-04-06T01:39:08;99463.80;;;-0.51;65.36
58662;BME280;44432;49.786;22.760;2023-04-06T01:41:39;99460.14;;;-0.55;65.52
58662;BME280;44432;49.786;22.760;2023-04-06T01:44:10;99459.69;;;-0.57;65.71
58662;BME280;44432;49.786;22.760;2023-04-06T01:46:41;99454.44;;;-0.60;65.86
58662;BME280;44432;49.786;22.760;2023-04-06T01:49:12;99451.14;;;-0.62;66.16
58662;BME280;44432;49.786;22.760;2023-04-06T01:51:42;99447.18;;;-0.64;66.36
58662;BME280;44432;49.786;22.760;2023-04-06T01:54:13;99446.82;;;-0.67;66.61
58662;BME280;44432;49.786;22.760;2023-04-06T01:56:44;99445.08;;;-0.67;66.75
58662;BME280;44432;49.786;22.760;2023-04-06T01:59:15;99439.35;;;-0.66;67.03
58662;BME280;44432;49.786;22.760;2023-04-06T02:01:46;99435.15;;;-0.67;66.99
58662;BME280;44432;49.786;22.760;2023-04-06T02:04:16;99431.30;;;-0.67;67.25
58662;BME280;44432;49.786;22.760;2023-04-06T02:06:47;99429.30;;;-0.68;67.19
58662;BME280;44432;49.786;22.760;2023-04-06T02:09:18;99424.56;;;-0.69;67.43
58662;BME280;44432;49.786;22.760;2023-04-06T02:11:48;99420.33;;;-0.72;67.56
58662;BME280;44432;49.786;22.760;2023-04-06T02:14:19;99417.84;;;-0.69;67.60
58662;BME280;44432;49.786;22.760;2023-04-06T02:16:50;99415.25;;;-0.69;67.51
58662;BME280;44432;49.786;22.760;2023-04-06T02:19:21;99416.17;;;-0.68;67.66
58662;BME280;44432;49.786;22.760;2023-04-06T02:21:51;99408.75;;;-0.68;67.74
58662;BME280;44432;49.786;22.760;2023-04-06T02:24:22;99404.25;;;-0.70;67.95
58662;BME280;44432;49.786;22.760;2023-04-06T02:26:53;99398.27;;;-0.71;67.95
58662;BME280;44432;49.786;22.760;2023-04-06T02:29:23;99393.48;;;-0.73;67.86
58662;BME280;44432;49.786;22.760;2023-04-06T02:31:54;99383.87;;;-0.74;67.87
58662;BME280;44432;49.786;22.760;2023-04-06T02:34:25;99380.73;;;-0.72;68.06
58662;BME280;44432;49.786;22.760;2023-04-06T02:36:56;99379.74;;;-0.72;68.11
58662;BME280;44432;49.786;22.760;2023-04-06T02:39:27;99376.94;;;-0.72;68.28
58662;BME280;44432;49.786;22.760;2023-04-06T02:41:57;99377.52;;;-0.74;68.22
58662;BME280;44432;49.786;22.760;2023-04-06T02:44:29;99375.80;;;-0.76;68.50
58662;BME280;44432;49.786;22.760;2023-04-06T02:46:59;99376.81;;;-0.76;68.71
58662;BME280;44432;49.786;22.760;2023-04-06T02:49:30;99375.96;;;-0.78;69.24
58662;BME280;44432;49.786;22.760;2023-04-06T02:52:01;99376.45;;;-0.81;69.03
58662;BME280;44432;49.786;22.760;2023-04-06T02:54:32;99372.94;;;-0.84;69.30
58662;BME280;44432;49.786;22.760;2023-04-06T02:57:02;99366.09;;;-0.87;69.38
58662;BME280;44432;49.786;22.760;2023-04-06T02:59:33;99363.44;;;-0.88;69.90
58662;BME280;44432;49.786;22.760;2023-04-06T03:02:04;99367.92;;;-0.90;69.90
58662;BME280;44432;49.786;22.760;2023-04-06T03:04:34;99370.02;;;-0.91;70.29
58662;BME280;44432;49.786;22.760;2023-04-06T03:07:05;99370.16;;;-0.92;70.28
58662;BME280;44432;49.786;22.760;2023-04-06T03:09:38;99367.27;;;-0.95;70.60
58662;BME280;44432;49.786;22.760;2023-04-06T03:12:08;99367.92;;;-0.92;70.72
58662;BME280;44432;49.786;22.760;2023-04-06T03:14:39;99367.81;;;-0.93;70.95
58662;BME280;44432;49.786;22.760;2023-04-06T03:17:10;99368.80;;;-0.94;71.21
58662;BME280;44432;49.786;22.760;2023-04-06T03:19:40;99368.82;;;-0.98;71.36
58662;BME280;44432;49.786;22.760;2023-04-06T03:22:11;99366.59;;;-1.03;71.47
58662;BME280;44432;49.786;22.760;2023-04-06T03:24:42;99365.29;;;-1.03;71.64
58662;BME280;44432;49.786;22.760;2023-04-06T03:27:13;99365.73;;;-1.04;71.94
58662;BME280;44432;49.786;22.760;2023-04-06T03:29:43;99359.96;;;-1.05;72.18
58662;BME280;44432;49.786;22.760;2023-04-06T03:32:14;99358.59;;;-1.05;72.52
58662;BME280;44432;49.786;22.760;2023-04-06T03:34:45;99355.40;;;-1.10;72.80
58662;BME280;44432;49.786;22.760;2023-04-06T03:37:15;99356.55;;;-1.11;72.77
58662;BME280;44432;49.786;22.760;2023-04-06T03:39:46;99355.41;;;-1.12;73.17
58662;BME280;44432;49.786;22.760;2023-04-06T03:42:17;99355.24;;;-1.14;73.47
58662;BME280;44432;49.786;22.760;2023-04-06T03:44:47;99355.16;;;-1.15;73.43
58662;BME280;44432;49.786;22.760;2023-04-06T03:47:18;99352.95;;;-1.14;73.63
58662;BME280;44432;49.786;22.760;2023-04-06T03:49:49;99352.19;;;-1.13;73.92
58662;BME280;44432;49.786;22.760;2023-04-06T03:52:20;99350.45;;;-1.11;73.98
58662;BME280;44432;49.786;22.760;2023-04-06T03:54:52;99349.05;;;-1.11;74.00
58662;BME280;44432;49.786;22.760;2023-04-06T03:57:23;99347.95;;;-1.10;74.06
58662;BME280;44432;49.786;22.760;2023-04-06T03:59:54;99347.72;;;-1.11;74.18
58662;BME280;44432;49.786;22.760;2023-04-06T04:02:24;99346.73;;;-1.12;74.24
58662;BME280;44432;49.786;22.760;2023-04-06T04:04:55;99352.63;;;-1.10;74.46
58662;BME280;44432;49.786;22.760;2023-04-06T04:07:26;99349.65;;;-1.10;74.41
58662;BME280;44432;49.786;22.760;2023-04-06T04:09:57;99349.90;;;-1.09;74.53
58662;BME280;44432;49.786;22.760;2023-04-06T04:12:28;99349.14;;;-1.06;74.59
58662;BME280;44432;49.786;22.760;2023-04-06T04:14:58;99336.55;;;-1.04;74.54
58662;BME280;44432;49.786;22.760;2023-04-06T04:17:29;99338.29;;;-1.03;74.68
58662;BME280;44432;49.786;22.760;2023-04-06T04:20:00;99340.21;;;-1.01;74.75
58662;BME280;44432;49.786;22.760;2023-04-06T04:22:31;99340.54;;;-0.99;74.75
58662;BME280;44432;49.786;22.760;2023-04-06T04:25:02;99338.74;;;-0.98;74.91
58662;BME280;44432;49.786;22.760;2023-04-06T04:27:32;99344.63;;;-0.98;74.87
58662;BME280;44432;49.786;22.760;2023-04-06T04:30:04;99340.64;;;-0.98;75.08
58662;BME280;44432;49.786;22.760;2023-04-06T04:32:35;99330.55;;;-0.97;75.14
58662;BME280;44432;49.786;22.760;2023-04-06T04:35:06;99330.77;;;-0.96;75.34
58662;BME280;44432;49.786;22.760;2023-04-06T04:37:37;99328.70;;;-0.96;75.33
58662;BME280;44432;49.786;22.760;2023-04-06T04:40:10;99333.25;;;-0.95;75.45
58662;BME280;44432;49.786;22.760;2023-04-06T04:42:41;99327.55;;;-0.96;75.41
58662;BME280;44432;49.786;22.760;2023-04-06T04:45:12;99326.33;;;-0.96;75.51
58662;BME280;44432;49.786;22.760;2023-04-06T04:47:43;99320.67;;;-0.95;75.76
58662;BME280;44432;49.786;22.760;2023-04-06T04:50:15;99317.05;;;-0.93;75.77
58662;BME280;44432;49.786;22.760;2023-04-06T04:52:45;99311.70;;;-0.91;75.82
58662;BME280;44432;49.786;22.760;2023-04-06T04:55:16;99311.48;;;-0.91;75.78
58662;BME280;44432;49.786;22.760;2023-04-06T04:57:47;99310.50;;;-0.89;76.00
58662;BME280;44432;49.786;22.760;2023-04-06T05:00:18;99305.89;;;-0.90;75.86
58662;BME280;44432;49.786;22.760;2023-04-06T05:02:50;99305.48;;;-0.91;75.91
58662;BME280;44432;49.786;22.760;2023-04-06T05:05:20;99304.11;;;-0.93;75.75
58662;BME280;44432;49.786;22.760;2023-04-06T05:07:51;99303.77;;;-0.95;76.20
58662;BME280;44432;49.786;22.760;2023-04-06T05:10:22;99292.73;;;-0.99;76.27
58662;BME280;44432;49.786;22.760;2023-04-06T05:12:53;99305.48;;;-0.99;76.37
58662;BME280;44432;49.786;22.760;2023-04-06T05:15:24;99299.46;;;-1.01;76.56
58662;BME280;44432;49.786;22.760;2023-04-06T05:17:55;99299.08;;;-1.01;76.36
58662;BME280;44432;49.786;22.760;2023-04-06T05:20:26;99293.95;;;-1.02;76.57
58662;BME280;44432;49.786;22.760;2023-04-06T05:22:57;99292.54;;;-0.99;76.69
58662;BME280;44432;49.786;22.760;2023-04-06T05:25:27;99281.89;;;-0.98;76.91
58662;BME280;44432;49.786;22.760;2023-04-06T05:27:58;99276.05;;;-0.93;76.95
58662;BME280;44432;49.786;22.760;2023-04-06T05:30:29;99274.65;;;-0.89;76.93
58662;BME280;44432;49.786;22.760;2023-04-06T05:33:00;99267.86;;;-0.86;76.73
58662;BME280;44432;49.786;22.760;2023-04-06T05:35:31;99269.83;;;-0.83;76.67
58662;BME280;44432;49.786;22.760;2023-04-06T05:38:01;99261.13;;;-0.83;76.78
58662;BME280;44432;49.786;22.760;2023-04-06T05:40:32;99258.45;;;-0.82;76.68
58662;BME280;44432;49.786;22.760;2023-04-06T05:43:03;99255.73;;;-0.82;76.85
58662;BME280;44432;49.786;22.760;2023-04-06T05:45:34;99247.36;;;-0.83;76.98
58662;BME280;44432;49.786;22.760;2023-04-06T05:48:05;99244.67;;;-0.82;76.90
58662;BME280;44432;49.786;22.760;2023-04-06T05:50:36;99246.15;;;-0.81;76.98
58662;BME280;44432;49.786;22.760;2023-04-06T05:53:07;99246.11;;;-0.81;77.05
58662;BME280;44432;49.786;22.760;2023-04-06T05:55:37;99240.20;;;-0.80;76.93
58662;BME280;44432;49.786;22.760;2023-04-06T05:58:09;99238.98;;;-0.78;77.21
58662;BME280;44432;49.786;22.760;2023-04-06T06:00:40;99243.61;;;-0.80;77.50
58662;BME280;44432;49.786;22.760;2023-04-06T06:03:11;99236.60;;;-0.79;77.71
58662;BME280;44432;49.786;22.760;2023-04-06T06:05:42;99237.03;;;-0.78;77.77
58662;BME280;44432;49.786;22.760;2023-04-06T06:08:13;99235.15;;;-0.76;77.69
58662;BME280;44432;49.786;22.760;2023-04-06T06:10:44;99231.35;;;-0.76;77.67
58662;BME280;44432;49.786;22.760;2023-04-06T06:13:15;99235.23;;;-0.75;77.85
58662;BME280;44432;49.786;22.760;2023-04-06T06:15:46;99228.13;;;-0.75;77.85
58662;BME280;44432;49.786;22.760;2023-04-06T06:18:17;99219.30;;;-0.73;78.12
58662;BME280;44432;49.786;22.760;2023-04-06T06:20:48;99217.98;;;-0.72;78.04
58662;BME280;44432;49.786;22.760;2023-04-06T06:23:19;99218.67;;;-0.70;78.26
58662;BME280;44432;49.786;22.760;2023-04-06T06:25:49;99213.96;;;-0.68;78.06
58662;BME280;44432;49.786;22.760;2023-04-06T06:28:20;99207.60;;;-0.66;78.28
58662;BME280;44432;49.786;22.760;2023-04-06T06:30:51;99204.02;;;-0.67;78.20
58662;BME280;44432;49.786;22.760;2023-04-06T06:33:21;99193.41;;;-0.68;78.27
58662;BME280;44432;49.786;22.760;2023-04-06T06:35:53;99192.80;;;-0.71;78.68
58662;BME280;44432;49.786;22.760;2023-04-06T06:38:23;99186.98;;;-0.75;78.91
58662;BME280;44432;49.786;22.760;2023-04-06T06:40:54;99191.19;;;-0.77;79.06
58662;BME280;44432;49.786;22.760;2023-04-06T06:43:25;99180.50;;;-0.79;79.34
58662;BME280;44432;49.786;22.760;2023-04-06T06:45:56;99183.44;;;-0.80;79.36
58662;BME280;44432;49.786;22.760;2023-04-06T06:48:28;99178.61;;;-0.78;79.61
58662;BME280;44432;49.786;22.760;2023-04-06T06:50:58;99180.46;;;-0.75;79.53
58662;BME280;44432;49.786;22.760;2023-04-06T06:53:29;99180.23;;;-0.73;79.68
58662;BME280;44432;49.786;22.760;2023-04-06T06:56:00;99167.99;;;-0.72;79.59
58662;BME280;44432;49.786;22.760;2023-04-06T06:58:31;99159.23;;;-0.70;79.62
58662;BME280;44432;49.786;22.760;2023-04-06T07:01:01;99157.83;;;-0.68;79.81
58662;BME280;44432;49.786;22.760;2023-04-06T07:03:34;99154.81;;;-0.63;79.92
58662;BME280;44432;49.786;22.760;2023-04-06T07:06:05;99148.08;;;-0.60;79.91
58662;BME280;44432;49.786;22.760;2023-04-06T07:08:36;99152.30;;;-0.57;80.15
58662;BME280;44432;49.786;22.760;2023-04-06T07:11:06;99151.48;;;-0.54;80.22
58662;BME280;44432;49.786;22.760;2023-04-06T07:13:37;99151.55;;;-0.51;79.99
58662;BME280;44432;49.786;22.760;2023-04-06T07:16:08;99154.77;;;-0.47;80.00
58662;BME280;44432;49.786;22.760;2023-04-06T07:18:39;99150.64;;;-0.43;79.66
58662;BME280;44432;49.786;22.760;2023-04-06T07:21:10;99149.30;;;-0.42;79.79
58662;BME280;44432;49.786;22.760;2023-04-06T07:23:41;99143.92;;;-0.40;79.64
58662;BME280;44432;49.786;22.760;2023-04-06T07:26:13;99146.17;;;-0.37;79.61
58662;BME280;44432;49.786;22.760;2023-04-06T07:28:43;99144.85;;;-0.34;79.57
58662;BME280;44432;49.786;22.760;2023-04-06T07:31:14;99147.73;;;-0.33;79.41
58662;BME280;44432;49.786;22.760;2023-04-06T07:33:45;99147.66;;;-0.34;79.27
58662;BME280;44432;49.786;22.760;2023-04-06T07:36:16;99148.16;;;-0.32;79.24
58662;BME280;44432;49.786;22.760;2023-04-06T07:38:47;99152.75;;;-0.27;79.25
58662;BME280;44432;49.786;22.760;2023-04-06T07:41:18;99157.09;;;-0.26;78.92
58662;BME280;44432;49.786;22.760;2023-04-06T07:43:49;99157.13;;;-0.24;79.09
58662;BME280;44432;49.786;22.760;2023-04-06T07:46:19;99157.02;;;-0.25;78.86
58662;BME280;44432;49.786;22.760;2023-04-06T07:48:50;99154.12;;;-0.24;78.82
58662;BME280;44432;49.786;22.760;2023-04-06T07:51:21;99159.46;;;-0.22;78.90
58662;BME280;44432;49.786;22.760;2023-04-06T07:53:52;99161.17;;;-0.23;78.88
58662;BME280;44432;49.786;22.760;2023-04-06T07:56:24;99154.55;;;-0.22;78.80
58662;BME280;44432;49.786;22.760;2023-04-06T07:58:55;99147.25;;;-0.17;78.92
58662;BME280;44432;49.786;22.760;2023-04-06T08:01:28;99148.11;;;-0.08;79.01
58662;BME280;44432;49.786;22.760;2023-04-06T08:03:59;99141.77;;;-0.04;78.39
58662;BME280;44432;49.786;22.760;2023-04-06T08:06:31;99140.51;;;0.04;78.52
58662;BME280;44432;49.786;22.760;2023-04-06T08:09:02;99132.45;;;0.11;78.33
58662;BME280;44432;49.786;22.760;2023-04-06T08:11:33;99131.96;;;0.17;78.13
58662;BME280;44432;49.786;22.760;2023-04-06T08:14:04;99124.10;;;0.16;78.34
58662;BME280;44432;49.786;22.760;2023-04-06T08:16:35;99127.52;;;0.22;78.31
58662;BME280;44432;49.786;22.760;2023-04-06T08:19:06;99145.20;;;0.21;77.94
58662;BME280;44432;49.786;22.760;2023-04-06T08:21:38;99178.98;;;0.21;77.94
58662;BME280;44432;49.786;22.760;2023-04-06T08:24:10;99203.86;;;0.20;77.92
58662;BME280;44432;49.786;22.760;2023-04-06T08:26:41;99208.84;;;0.18;77.77
58662;BME280;44432;49.786;22.760;2023-04-06T08:29:12;99207.85;;;0.16;77.96
58662;BME280;44432;49.786;22.760;2023-04-06T08:31:42;99209.07;;;0.18;77.99
58662;BME280;44432;49.786;22.760;2023-04-06T08:34:13;99210.56;;;0.18;77.93
58662;BME280;44432;49.786;22.760;2023-04-06T08:36:44;99210.14;;;0.21;78.15
58662;BME280;44432;49.786;22.760;2023-04-06T08:39:16;99209.69;;;0.29;78.28
58662;BME280;44432;49.786;22.760;2023-04-06T08:41:46;99198.33;;;0.36;78.18
58662;BME280;44432;49.786;22.760;2023-04-06T08:44:18;99184.09;;;0.45;78.32
58662;BME280;44432;49.786;22.760;2023-04-06T08:46:48;99181.38;;;0.55;78.24
58662;BME280;44432;49.786;22.760;2023-04-06T08:49:20;99179.83;;;0.57;78.04
58662;BME280;44432;49.786;22.760;2023-04-06T08:51:52;99182.40;;;0.57;78.09
58662;BME280;44432;49.786;22.760;2023-04-06T08:54:22;99180.84;;;0.57;78.08
58662;BME280;44432;49.786;22.760;2023-04-06T08:56:54;99178.66;;;0.53;78.13
58662;BME280;44432;49.786;22.760;2023-04-06T08:59:26;99186.09;;;0.56;78.40
58662;BME280;44432;49.786;22.760;2023-04-06T09:01:57;99178.98;;;0.60;78.53
58662;BME280;44432;49.786;22.760;2023-04-06T09:04:29;99175.69;;;0.63;78.25
58662;BME280;44432;49.786;22.760;2023-04-06T09:07:02;99176.87;;;0.69;78.03
58662;BME280;44432;49.786;22.760;2023-04-06T09:09:33;99173.55;;;0.78;78.25
58662;BME280;44432;49.786;22.760;2023-04-06T09:12:04;99172.93;;;0.87;78.10
58662;BME280;44432;49.786;22.760;2023-04-06T09:14:37;99168.22;;;0.93;77.75
58662;BME280;44432;49.786;22.760;2023-04-06T09:17:08;99168.92;;;0.96;77.62
58662;BME280;44432;49.786;22.760;2023-04-06T09:19:51;99170.78;;;1.05;78.01
58662;BME280;44432;49.786;22.760;2023-04-06T09:22:22;99173.41;;;1.20;77.94
58662;BME280;44432;49.786;22.760;2023-04-06T09:24:54;99176.26;;;1.30;77.81
58662;BME280;44432;49.786;22.760;2023-04-06T09:27:36;99172.59;;;1.41;77.71
58662;BME280;44432;49.786;22.760;2023-04-06T09:30:09;99176.20;;;1.47;77.20
58662;BME280;44432;49.786;22.760;2023-04-06T09:32:51;99170.80;;;1.54;77.10
58662;BME280;44432;49.786;22.760;2023-04-06T09:35:22;99169.16;;;1.60;76.84
58662;BME280;44432;49.786;22.760;2023-04-06T09:37:55;99169.46;;;1.66;76.68
58662;BME280;44432;49.786;22.760;2023-04-06T09:40:26;99166.39;;;1.70;76.53
58662;BME280;44432;49.786;22.760;2023-04-06T09:42:58;99162.48;;;1.68;76.11
58662;BME280;44432;49.786;22.760;2023-04-06T09:45:32;99160.96;;;1.74;76.04
58662;BME280;44432;49.786;22.760;2023-04-06T09:48:02;99160.49;;;1.83;76.03
58662;BME280;44432;49.786;22.760;2023-04-06T09:50:34;99159.22;;;1.92;76.05
58662;BME280;44432;49.786;22.760;2023-04-06T09:53:05;99154.78;;;2.02;75.96
58662;BME280;44432;49.786;22.760;2023-04-06T09:55:42;99159.98;;;2.10;75.86
58662;BME280;44432;49.786;22.760;2023-04-06T09:58:15;99158.45;;;2.09;74.78
58662;BME280;44432;49.786;22.760;2023-04-06T10:00:50;99159.10;;;2.08;75.09
58662;BME280;44432;49.786;22.760;2023-04-06T10:03:30;99156.03;;;2.14;75.49
58662;BME280;44432;49.786;22.760;2023-04-06T10:06:13;99155.80;;;2.14;74.63
58662;BME280;44432;49.786;22.760;2023-04-06T10:08:45;99148.98;;;2.09;74.58
58662;BME280;44432;49.786;22.760;2023-04-06T10:11:18;99150.55;;;2.05;74.81
58662;BME280;44432;49.786;22.760;2023-04-06T10:13:49;99149.13;;;2.15;75.63
58662;BME280;44432;49.786;22.760;2023-04-06T10:16:20;99151.11;;;2.18;74.86
58662;BME280;44432;49.786;22.760;2023-04-06T10:18:54;99149.10;;;2.14;74.55
58662;BME280;44432;49.786;22.760;2023-04-06T10:21:28;99143.57;;;2.09;75.04
58662;BME280;44432;49.786;22.760;2023-04-06T10:24:01;99144.14;;;2.10;75.47
58662;BME280;44432;49.786;22.760;2023-04-06T10:26:32;99145.63;;;2.01;75.04
58662;BME280;44432;49.786;22.760;2023-04-06T10:29:05;99142.23;;;1.97;75.36
58662;BME280;44432;49.786;22.760;2023-04-06T10:31:39;99137.09;;;1.95;75.21
58662;BME280;44432;49.786;22.760;2023-04-06T10:34:10;99140.52;;;1.93;75.67
58662;BME280;44432;49.786;22.760;2023-04-06T10:36:40;99142.92;;;1.97;75.65
58662;BME280;44432;49.786;22.760;2023-04-06T10:39:11;99147.67;;;2.05;75.76
58662;BME280;44432;49.786;22.760;2023-04-06T10:41:44;99145.03;;;2.16;75.56
58662;BME280;44432;49.786;22.760;2023-04-06T10:44:21;99144.91;;;2.24;75.17
58662;BME280;44432;49.786;22.760;2023-04-06T10:46:56;99143.45;;;2.35;75.23
58662;BME280;44432;49.786;22.760;2023-04-06T10:49:29;99142.30;;;2.43;75.08
58662;BME280;44432;49.786;22.760;2023-04-06T10:52:00;99142.37;;;2.48;75.25
58662;BME280;44432;49.786;22.760;2023-04-06T10:54:31;99145.13;;;2.43;74.36
58662;BME280;44432;49.786;22.760;2023-04-06T10:57:03;99147.64;;;2.44;74.45
58662;BME280;44432;49.786;22.760;2023-04-06T10:59:34;99141.86;;;2.57;74.89
58662;BME280;44432;49.786;22.760;2023-04-06T11:02:04;99138.02;;;2.69;74.32
58662;BME280;44432;49.786;22.760;2023-04-06T11:04:35;99136.97;;;2.86;74.70
58662;BME280;44432;49.786;22.760;2023-04-06T11:07:06;99134.55;;;3.02;74.16
58662;BME280;44432;49.786;22.760;2023-04-06T11:09:37;99138.48;;;3.12;73.76
58662;BME280;44432;49.786;22.760;2023-04-06T11:12:08;99133.27;;;3.15;73.51
58662;BME280;44432;49.786;22.760;2023-04-06T11:14:38;99129.90;;;3.06;72.82
58662;BME280;44432;49.786;22.760;2023-04-06T11:17:09;99133.08;;;3.06;73.22
58662;BME280;44432;49.786;22.760;2023-04-06T11:19:40;99139.85;;;3.05;73.30
58662;BME280;44432;49.786;22.760;2023-04-06T11:22:11;99135.50;;;3.00;73.36
58662;BME280;44432;49.786;22.760;2023-04-06T11:24:42;99134.08;;;2.97;73.48
58662;BME280;44432;49.786;22.760;2023-04-06T11:27:13;99139.76;;;2.93;73.15
58662;BME280;44432;49.786;22.760;2023-04-06T11:29:45;99147.97;;;2.78;72.99
58662;BME280;44432;49.786;22.760;2023-04-06T11:32:22;99141.20;;;2.68;73.40
58662;BME280;44432;49.786;22.760;2023-04-06T11:34:53;99143.75;;;2.66;73.91
58662;BME280;44432;49.786;22.760;2023-04-06T11:37:27;99136.09;;;2.62;73.67
58662;BME280;44432;49.786;22.760;2023-04-06T11:39:58;99125.84;;;2.53;73.62
58662;BME280;44432;49.786;22.760;2023-04-06T11:42:30;99126.52;;;2.43;73.80
58662;BME280;44432;49.786;22.760;2023-04-06T11:45:01;99130.68;;;2.40;74.20
58662;BME280;44432;49.786;22.760;2023-04-06T11:47:35;99134.88;;;2.37;74.16
58662;BME280;44432;49.786;22.760;2023-04-06T11:50:11;99138.00;;;2.30;74.01
58662;BME280;44432;49.786;22.760;2023-04-06T11:52:43;99130.41;;;2.20;74.27
58662;BME280;44432;49.786;22.760;2023-04-06T11:55:16;99130.45;;;2.19;74.83
58662;BME280;44432;49.786;22.760;2023-04-06T11:57:45;99132.44;;;2.19;75.05
58662;BME280;44432;49.786;22.760;2023-04-06T12:00:18;99128.82;;;2.18;74.79
58662;BME280;44432;49.786;22.760;2023-04-06T12:02:49;99121.23;;;2.11;74.95
58662;BME280;44432;49.786;22.760;2023-04-06T12:05:21;99123.98;;;2.07;74.62
58662;BME280;44432;49.786;22.760;2023-04-06T12:07:52;99125.55;;;2.02;74.86
58662;BME280;44432;49.786;22.760;2023-04-06T12:10:23;99125.31;;;2.00;74.99
58662;BME280;44432;49.786;22.760;2023-04-06T12:12:54;99124.27;;;1.91;74.80
58662;BME280;44432;49.786;22.760;2023-04-06T12:15:25;99121.23;;;1.84;75.31
58662;BME280;44432;49.786;22.760;2023-04-06T12:17:56;99122.27;;;1.82;75.40
58662;BME280;44432;49.786;22.760;2023-04-06T12:20:26;99119.78;;;1.78;75.27
58662;BME280;44432;49.786;22.760;2023-04-06T12:22:57;99120.23;;;1.78;75.51
58662;BME280;44432;49.786;22.760;2023-04-06T12:25:28;99123.14;;;1.79;75.73
58662;BME280;44432;49.786;22.760;2023-04-06T12:27:59;99126.45;;;1.75;75.32
58662;BME280;44432;49.786;22.760;2023-04-06T12:30:30;99127.41;;;1.71;75.12
58662;BME280;44432;49.786;22.760;2023-04-06T12:33:01;99126.46;;;1.65;75.20
58662;BME280;44432;49.786;22.760;2023-04-06T12:35:35;99128.14;;;1.62;75.69
58662;BME280;44432;49.786;22.760;2023-04-06T12:38:06;99124.66;;;1.59;75.96
58662;BME280;44432;49.786;22.760;2023-04-06T12:40:39;99124.38;;;1.62;76.16
58662;BME280;44432;49.786;22.760;2023-04-06T12:43:09;99126.30;;;1.60;76.15
58662;BME280;44432;49.786;22.760;2023-04-06T12:45:42;99124.92;;;1.60;76.08
58662;BME280;44432;49.786;22.760;2023-04-06T12:48:13;99120.46;;;1.61;76.27
58662;BME280;44432;49.786;22.760;2023-04-06T12:50:44;99116.63;;;1.61;76.28
58662;BME280;44432;49.786;22.760;2023-04-06T12:53:14;99122.58;;;1.61;76.13
58662;BME280;44432;49.786;22.760;2023-04-06T12:55:45;99125.50;;;1.58;75.92
58662;BME280;44432;49.786;22.760;2023-04-06T12:58:16;99124.05;;;1.50;76.06
58662;BME280;44432;49.786;22.760;2023-04-06T13:00:48;99116.64;;;1.41;76.23
58662;BME280;44432;49.786;22.760;2023-04-06T13:03:20;99111.21;;;1.32;76.32
58662;BME280;44432;49.786;22.760;2023-04-06T13:05:51;99106.11;;;1.26;76.65
58662;BME280;44432;49.786;22.760;2023-04-06T13:08:22;99108.64;;;1.21;77.12
58662;BME280;44432;49.786;22.760;2023-04-06T13:10:53;99109.52;;;1.15;76.91
58662;BME280;44432;49.786;22.760;2023-04-06T13:13:26;99113.66;;;1.11;77.63
58662;BME280;44432;49.786;22.760;2023-04-06T13:16:01;99105.45;;;1.07;77.72